Terminal Aerodrome Forecast
Issued by NWS

Home | Current Version | Previous Version | Text Only | Print | Product List | Glossary On
Versions: 1 2 3 4 5 6 7 8 9 10 11 12 13 14 15 16 17 18 19 20 21 22 23
000
FTUS43 KBIS 230520
TAFMOT
TAF
KMOT 230520Z 2306/2406 26009KT P6SM BKN018 OVC045
     FM230900 27008KT P6SM OVC020
     FM231200 27006KT P6SM BKN015
     FM232100 33005KT P6SM BKN015=

USA.gov is the U.S. government's official web portal to all federal, state and local government web resources and services.